sensor_id;sensor_type;location;lat;lon;timestamp;temperature;humidity
7472;DHT22;3777;48.722;8.110;2022-10-18T00:00:04;16.50;99.90
7472;DHT22;3777;48.722;8.110;2022-10-18T00:02:31;16.50;99.90
7472;DHT22;3777;48.722;8.110;2022-10-18T00:04:58;16.60;99.90
7472;DHT22;3777;48.722;8.110;2022-10-18T00:07:25;16.60;99.90
7472;DHT22;3777;48.722;8.110;2022-10-18T00:09:52;16.60;99.90
7472;DHT22;3777;48.722;8.110;2022-10-18T00:12:21;16.50;99.90
7472;DHT22;3777;48.722;8.110;2022-10-18T00:14:48;16.50;99.90
7472;DHT22;3777;48.722;8.110;2022-10-18T00:17:15;16.60;99.90
7472;DHT22;3777;48.722;8.110;2022-10-18T00:19:42;16.60;99.90
7472;DHT22;3777;48.722;8.110;2022-10-18T00:22:11;16.70;99.90
7472;DHT22;3777;48.722;8.110;2022-10-18T00:24:38;16.70;99.90
7472;DHT22;3777;48.722;8.110;2022-10-18T00:27:04;16.80;99.90
7472;DHT22;3777;48.722;8.110;2022-10-18T00:29:33;16.80;99.90
7472;DHT22;3777;48.722;8.110;2022-10-18T00:32:00;16.90;99.90
7472;DHT22;3777;48.722;8.110;2022-10-18T00:34:27;16.90;99.90
7472;DHT22;3777;48.722;8.110;2022-10-18T00:36:54;16.90;99.90
7472;DHT22;3777;48.722;8.110;2022-10-18T00:39:21;17.00;99.90
7472;DHT22;3777;48.722;8.110;2022-10-18T00:41:49;17.00;99.90
7472;DHT22;3777;48.722;8.110;2022-10-18T00:47:21;17.00;99.90
7472;DHT22;3777;48.722;8.110;2022-10-18T00:49:52;17.10;99.90
7472;DHT22;3777;48.722;8.110;2022-10-18T00:52:23;17.10;99.90
7472;DHT22;3777;48.722;8.110;2022-10-18T00:54:52;17.10;99.90
7472;DHT22;3777;48.722;8.110;2022-10-18T00:57:21;17.10;99.90
7472;DHT22;3777;48.722;8.110;2022-10-18T00:59:49;17.10;99.90
7472;DHT22;3777;48.722;8.110;2022-10-18T01:02:16;17.20;99.90
7472;DHT22;3777;48.722;8.110;2022-10-18T01:04:45;17.20;99.90
7472;DHT22;3777;48.722;8.110;2022-10-18T01:07:22;17.20;99.90
7472;DHT22;3777;48.722;8.110;2022-10-18T01:09:59;17.20;99.90
7472;DHT22;3777;48.722;8.110;2022-10-18T01:12:39;17.30;99.90
7472;DHT22;3777;48.722;8.110;2022-10-18T01:15:11;17.30;99.90
7472;DHT22;3777;48.722;8.110;2022-10-18T01:17:47;17.30;99.90
7472;DHT22;3777;48.722;8.110;2022-10-18T01:23:21;17.30;99.90
7472;DHT22;3777;48.722;8.110;2022-10-18T01:25:59;17.30;99.90
7472;DHT22;3777;48.722;8.110;2022-10-18T01:28:39;17.30;99.90
7472;DHT22;3777;48.722;8.110;2022-10-18T01:31:11;17.30;99.90
7472;DHT22;3777;48.722;8.110;2022-10-18T01:33:42;17.30;99.90
7472;DHT22;3777;48.722;8.110;2022-10-18T01:36:16;17.30;99.90
7472;DHT22;3777;48.722;8.110;2022-10-18T01:38:46;17.30;99.90
7472;DHT22;3777;48.722;8.110;2022-10-18T01:41:17;17.30;99.90
7472;DHT22;3777;48.722;8.110;2022-10-18T01:43:47;17.40;99.90
7472;DHT22;3777;48.722;8.110;2022-10-18T01:46:20;17.40;99.90
7472;DHT22;3777;48.722;8.110;2022-10-18T01:48:48;17.40;99.90
7472;DHT22;3777;48.722;8.110;2022-10-18T01:51:18;17.40;99.90
7472;DHT22;3777;48.722;8.110;2022-10-18T01:53:45;17.50;99.90
7472;DHT22;3777;48.722;8.110;2022-10-18T01:56:30;17.50;99.90
7472;DHT22;3777;48.722;8.110;2022-10-18T01:59:06;17.40;99.90
7472;DHT22;3777;48.722;8.110;2022-10-18T02:01:46;17.40;99.90
7472;DHT22;3777;48.722;8.110;2022-10-18T02:04:22;17.40;99.90
7472;DHT22;3777;48.722;8.110;2022-10-18T02:06:56;17.40;99.90
7472;DHT22;3777;48.722;8.110;2022-10-18T02:09:31;17.40;99.90
7472;DHT22;3777;48.722;8.110;2022-10-18T02:12:00;17.40;99.90
7472;DHT22;3777;48.722;8.110;2022-10-18T02:14:29;17.50;99.90
7472;DHT22;3777;48.722;8.110;2022-10-18T02:16:59;17.50;99.90
7472;DHT22;3777;48.722;8.110;2022-10-18T02:19:30;17.50;99.90
7472;DHT22;3777;48.722;8.110;2022-10-18T02:21:58;17.40;99.90
7472;DHT22;3777;48.722;8.110;2022-10-18T02:24:30;17.40;99.90
7472;DHT22;3777;48.722;8.110;2022-10-18T02:27:00;17.40;99.90
7472;DHT22;3777;48.722;8.110;2022-10-18T02:29:27;17.30;99.90
7472;DHT22;3777;48.722;8.110;2022-10-18T02:32:01;17.30;99.90
7472;DHT22;3777;48.722;8.110;2022-10-18T02:34:33;17.20;99.90
7472;DHT22;3777;48.722;8.110;2022-10-18T02:37:02;17.20;99.90
7472;DHT22;3777;48.722;8.110;2022-10-18T02:39:32;17.20;99.90
7472;DHT22;3777;48.722;8.110;2022-10-18T02:41:59;17.10;99.90
7472;DHT22;3777;48.722;8.110;2022-10-18T02:44:26;17.10;99.90
7472;DHT22;3777;48.722;8.110;2022-10-18T02:46:53;17.00;99.90
7472;DHT22;3777;48.722;8.110;2022-10-18T02:49:22;17.00;99.90
7472;DHT22;3777;48.722;8.110;2022-10-18T02:51:49;17.00;99.90
7472;DHT22;3777;48.722;8.110;2022-10-18T02:54:16;16.90;99.90
7472;DHT22;3777;48.722;8.110;2022-10-18T02:56:43;16.90;99.90
7472;DHT22;3777;48.722;8.110;2022-10-18T02:59:10;16.80;99.90
7472;DHT22;3777;48.722;8.110;2022-10-18T03:01:37;16.70;99.90
7472;DHT22;3777;48.722;8.110;2022-10-18T03:04:04;16.70;99.90
7472;DHT22;3777;48.722;8.110;2022-10-18T03:06:33;16.60;99.90
7472;DHT22;3777;48.722;8.110;2022-10-18T03:09:01;16.50;99.90
7472;DHT22;3777;48.722;8.110;2022-10-18T03:11:28;16.50;99.90
7472;DHT22;3777;48.722;8.110;2022-10-18T03:13:55;16.40;99.90
7472;DHT22;3777;48.722;8.110;2022-10-18T03:16:22;16.40;99.90
7472;DHT22;3777;48.722;8.110;2022-10-18T03:18:49;16.30;99.90
7472;DHT22;3777;48.722;8.110;2022-10-18T03:21:15;16.30;99.90
7472;DHT22;3777;48.722;8.110;2022-10-18T03:23:44;16.20;99.90
7472;DHT22;3777;48.722;8.110;2022-10-18T03:26:11;16.20;99.90
7472;DHT22;3777;48.722;8.110;2022-10-18T03:28:38;16.20;99.90
7472;DHT22;3777;48.722;8.110;2022-10-18T03:31:05;16.20;99.90
7472;DHT22;3777;48.722;8.110;2022-10-18T03:33:32;16.10;99.90
7472;DHT22;3777;48.722;8.110;2022-10-18T03:35:59;16.10;99.90
7472;DHT22;3777;48.722;8.110;2022-10-18T03:38:26;16.10;99.90
7472;DHT22;3777;48.722;8.110;2022-10-18T03:40:54;16.20;99.90
7472;DHT22;3777;48.722;8.110;2022-10-18T03:43:21;16.20;99.90
7472;DHT22;3777;48.722;8.110;2022-10-18T03:45:48;16.20;99.90
7472;DHT22;3777;48.722;8.110;2022-10-18T03:48:15;16.30;99.90
7472;DHT22;3777;48.722;8.110;2022-10-18T03:50:42;16.40;99.90
7472;DHT22;3777;48.722;8.110;2022-10-18T03:53:09;16.40;99.90
7472;DHT22;3777;48.722;8.110;2022-10-18T03:55:36;16.50;99.90
7472;DHT22;3777;48.722;8.110;2022-10-18T03:58:05;16.60;99.90
7472;DHT22;3777;48.722;8.110;2022-10-18T04:00:32;16.60;99.90
7472;DHT22;3777;48.722;8.110;2022-10-18T04:02:59;16.60;99.90
7472;DHT22;3777;48.722;8.110;2022-10-18T04:05:26;16.70;99.90
7472;DHT22;3777;48.722;8.110;2022-10-18T04:07:55;16.80;99.90
7472;DHT22;3777;48.722;8.110;2022-10-18T04:10:22;16.90;99.90
7472;DHT22;3777;48.722;8.110;2022-10-18T04:12:49;16.90;99.90
7472;DHT22;3777;48.722;8.110;2022-10-18T04:15:18;16.90;99.90
7472;DHT22;3777;48.722;8.110;2022-10-18T04:17:44;17.00;99.90
7472;DHT22;3777;48.722;8.110;2022-10-18T04:20:11;17.10;99.90
7472;DHT22;3777;48.722;8.110;2022-10-18T04:22:39;17.10;99.90
7472;DHT22;3777;48.722;8.110;2022-10-18T04:25:06;17.20;99.90
7472;DHT22;3777;48.722;8.110;2022-10-18T04:27:34;17.20;99.90
7472;DHT22;3777;48.722;8.110;2022-10-18T04:30:01;17.30;99.90
7472;DHT22;3777;48.722;8.110;2022-10-18T04:32:29;17.30;99.90
7472;DHT22;3777;48.722;8.110;2022-10-18T04:34:56;17.30;99.90
7472;DHT22;3777;48.722;8.110;2022-10-18T04:37:23;17.40;99.90
7472;DHT22;3777;48.722;8.110;2022-10-18T04:39:50;17.40;99.90
7472;DHT22;3777;48.722;8.110;2022-10-18T04:42:17;17.40;99.90
7472;DHT22;3777;48.722;8.110;2022-10-18T04:44:44;17.40;99.90
7472;DHT22;3777;48.722;8.110;2022-10-18T04:47:11;17.50;99.90
7472;DHT22;3777;48.722;8.110;2022-10-18T04:49:39;17.50;99.90
7472;DHT22;3777;48.722;8.110;2022-10-18T04:52:06;17.50;99.90
7472;DHT22;3777;48.722;8.110;2022-10-18T04:54:34;17.50;99.90
7472;DHT22;3777;48.722;8.110;2022-10-18T04:57:01;17.50;99.90
7472;DHT22;3777;48.722;8.110;2022-10-18T04:59:28;17.50;99.90
7472;DHT22;3777;48.722;8.110;2022-10-18T05:01:55;17.50;99.90
7472;DHT22;3777;48.722;8.110;2022-10-18T05:04:22;17.50;99.90
7472;DHT22;3777;48.722;8.110;2022-10-18T05:06:50;17.50;99.90
7472;DHT22;3777;48.722;8.110;2022-10-18T05:09:17;17.50;99.90
7472;DHT22;3777;48.722;8.110;2022-10-18T05:11:44;17.60;99.90
7472;DHT22;3777;48.722;8.110;2022-10-18T05:14:11;17.60;99.90
7472;DHT22;3777;48.722;8.110;2022-10-18T05:16:38;17.60;99.90
7472;DHT22;3777;48.722;8.110;2022-10-18T05:19:05;17.60;99.90
7472;DHT22;3777;48.722;8.110;2022-10-18T05:21:32;17.60;99.90
7472;DHT22;3777;48.722;8.110;2022-10-18T05:24:00;17.60;99.90
7472;DHT22;3777;48.722;8.110;2022-10-18T05:26:27;17.60;99.90
7472;DHT22;3777;48.722;8.110;2022-10-18T05:28:54;17.70;99.90
7472;DHT22;3777;48.722;8.110;2022-10-18T05:31:21;17.70;99.90
7472;DHT22;3777;48.722;8.110;2022-10-18T05:33:48;17.70;99.90
7472;DHT22;3777;48.722;8.110;2022-10-18T05:36:15;17.70;99.90
7472;DHT22;3777;48.722;8.110;2022-10-18T05:38:42;17.70;99.90
7472;DHT22;3777;48.722;8.110;2022-10-18T05:41:11;17.70;99.90
7472;DHT22;3777;48.722;8.110;2022-10-18T05:43:39;17.70;99.90
7472;DHT22;3777;48.722;8.110;2022-10-18T05:46:06;17.70;99.90
7472;DHT22;3777;48.722;8.110;2022-10-18T05:48:33;17.80;99.90
7472;DHT22;3777;48.722;8.110;2022-10-18T05:51:00;17.80;99.90
7472;DHT22;3777;48.722;8.110;2022-10-18T05:53:28;17.80;99.90
7472;DHT22;3777;48.722;8.110;2022-10-18T05:55:58;17.90;99.90
7472;DHT22;3777;48.722;8.110;2022-10-18T05:58:27;17.90;99.90
7472;DHT22;3777;48.722;8.110;2022-10-18T06:00:56;17.90;99.90
7472;DHT22;3777;48.722;8.110;2022-10-18T06:03:23;17.90;99.90
7472;DHT22;3777;48.722;8.110;2022-10-18T06:05:52;17.80;99.90
7472;DHT22;3777;48.722;8.110;2022-10-18T06:08:19;17.90;99.90
7472;DHT22;3777;48.722;8.110;2022-10-18T06:10:46;17.90;99.90
7472;DHT22;3777;48.722;8.110;2022-10-18T06:13:12;17.90;99.90
7472;DHT22;3777;48.722;8.110;2022-10-18T06:15:41;17.90;99.90
7472;DHT22;3777;48.722;8.110;2022-10-18T06:18:08;17.90;99.90
7472;DHT22;3777;48.722;8.110;2022-10-18T06:20:35;18.00;99.90
7472;DHT22;3777;48.722;8.110;2022-10-18T06:23:02;18.00;99.90
7472;DHT22;3777;48.722;8.110;2022-10-18T06:25:28;18.00;99.90
7472;DHT22;3777;48.722;8.110;2022-10-18T06:27:55;18.10;99.90
7472;DHT22;3777;48.722;8.110;2022-10-18T06:30:22;18.10;99.90
7472;DHT22;3777;48.722;8.110;2022-10-18T06:32:51;18.10;99.90
7472;DHT22;3777;48.722;8.110;2022-10-18T06:35:17;18.10;99.90
7472;DHT22;3777;48.722;8.110;2022-10-18T06:37:44;18.20;99.90
7472;DHT22;3777;48.722;8.110;2022-10-18T06:40:12;18.20;99.90
7472;DHT22;3777;48.722;8.110;2022-10-18T06:42:39;18.30;99.90
7472;DHT22;3777;48.722;8.110;2022-10-18T06:45:07;18.30;99.90
7472;DHT22;3777;48.722;8.110;2022-10-18T06:47:34;18.40;99.90
7472;DHT22;3777;48.722;8.110;2022-10-18T06:50:03;18.50;99.90
7472;DHT22;3777;48.722;8.110;2022-10-18T06:52:30;18.60;99.90
7472;DHT22;3777;48.722;8.110;2022-10-18T06:54:57;18.70;99.90
7472;DHT22;3777;48.722;8.110;2022-10-18T06:57:24;18.80;99.90
7472;DHT22;3777;48.722;8.110;2022-10-18T06:59:51;18.90;99.90
7472;DHT22;3777;48.722;8.110;2022-10-18T07:02:18;19.10;99.90
7472;DHT22;3777;48.722;8.110;2022-10-18T07:04:45;19.20;99.90
7472;DHT22;3777;48.722;8.110;2022-10-18T07:07:13;19.20;99.90
7472;DHT22;3777;48.722;8.110;2022-10-18T07:09:40;19.30;99.90
7472;DHT22;3777;48.722;8.110;2022-10-18T07:12:07;19.30;99.90
7472;DHT22;3777;48.722;8.110;2022-10-18T07:14:36;19.30;99.90
7472;DHT22;3777;48.722;8.110;2022-10-18T07:17:03;19.20;99.90
7472;DHT22;3777;48.722;8.110;2022-10-18T07:19:30;19.20;99.90
7472;DHT22;3777;48.722;8.110;2022-10-18T07:21:57;19.20;99.90
7472;DHT22;3777;48.722;8.110;2022-10-18T07:24:25;19.20;99.90
7472;DHT22;3777;48.722;8.110;2022-10-18T07:26:52;19.20;99.90
7472;DHT22;3777;48.722;8.110;2022-10-18T07:29:19;19.10;99.90
7472;DHT22;3777;48.722;8.110;2022-10-18T07:31:46;19.10;99.90
7472;DHT22;3777;48.722;8.110;2022-10-18T07:34:13;19.00;99.90
7472;DHT22;3777;48.722;8.110;2022-10-18T07:36:41;19.00;99.90
7472;DHT22;3777;48.722;8.110;2022-10-18T07:39:08;19.00;99.90
7472;DHT22;3777;48.722;8.110;2022-10-18T07:41:36;18.90;99.90
7472;DHT22;3777;48.722;8.110;2022-10-18T07:44:04;18.90;99.90
7472;DHT22;3777;48.722;8.110;2022-10-18T07:46:34;18.90;99.90
7472;DHT22;3777;48.722;8.110;2022-10-18T07:49:01;18.90;99.90
7472;DHT22;3777;48.722;8.110;2022-10-18T07:51:28;19.00;99.90
7472;DHT22;3777;48.722;8.110;2022-10-18T07:53:57;19.10;99.90
7472;DHT22;3777;48.722;8.110;2022-10-18T07:56:24;19.10;99.90
7472;DHT22;3777;48.722;8.110;2022-10-18T07:58:54;19.20;99.90
7472;DHT22;3777;48.722;8.110;2022-10-18T08:01:23;19.20;99.90
7472;DHT22;3777;48.722;8.110;2022-10-18T08:03:50;19.20;99.90
7472;DHT22;3777;48.722;8.110;2022-10-18T08:06:18;19.20;99.90
7472;DHT22;3777;48.722;8.110;2022-10-18T08:08:46;19.10;99.90
7472;DHT22;3777;48.722;8.110;2022-10-18T08:11:14;19.00;99.90
7472;DHT22;3777;48.722;8.110;2022-10-18T08:13:42;18.90;99.90
7472;DHT22;3777;48.722;8.110;2022-10-18T08:16:13;18.90;99.90
7472;DHT22;3777;48.722;8.110;2022-10-18T08:18:40;18.90;99.90
7472;DHT22;3777;48.722;8.110;2022-10-18T08:21:08;18.90;99.90
7472;DHT22;3777;48.722;8.110;2022-10-18T08:23:36;18.80;99.90
7472;DHT22;3777;48.722;8.110;2022-10-18T08:26:05;18.80;99.90
7472;DHT22;3777;48.722;8.110;2022-10-18T08:28:32;18.80;99.90
7472;DHT22;3777;48.722;8.110;2022-10-18T08:31:02;18.90;99.90
7472;DHT22;3777;48.722;8.110;2022-10-18T08:33:30;18.90;99.90
7472;DHT22;3777;48.722;8.110;2022-10-18T08:35:59;18.80;99.90
7472;DHT22;3777;48.722;8.110;2022-10-18T08:38:28;18.90;99.90
7472;DHT22;3777;48.722;8.110;2022-10-18T08:40:58;19.10;99.90
7472;DHT22;3777;48.722;8.110;2022-10-18T08:43:30;19.30;99.90
7472;DHT22;3777;48.722;8.110;2022-10-18T08:45:59;19.30;99.90
7472;DHT22;3777;48.722;8.110;2022-10-18T08:48:34;19.50;99.90
7472;DHT22;3777;48.722;8.110;2022-10-18T08:51:03;19.60;99.90
7472;DHT22;3777;48.722;8.110;2022-10-18T08:53:38;19.50;99.90
7472;DHT22;3777;48.722;8.110;2022-10-18T08:56:10;19.40;99.90
7472;DHT22;3777;48.722;8.110;2022-10-18T08:58:40;19.20;99.90
7472;DHT22;3777;48.722;8.110;2022-10-18T09:01:16;19.20;99.90
7472;DHT22;3777;48.722;8.110;2022-10-18T09:06:45;19.10;99.90
7472;DHT22;3777;48.722;8.110;2022-10-18T09:09:23;19.20;99.90
7472;DHT22;3777;48.722;8.110;2022-10-18T09:11:59;19.30;99.90
7472;DHT22;3777;48.722;8.110;2022-10-18T09:17:30;19.60;99.90
7472;DHT22;3777;48.722;8.110;2022-10-18T09:20:14;19.70;99.90
7472;DHT22;3777;48.722;8.110;2022-10-18T09:22:54;19.90;99.90
7472;DHT22;3777;48.722;8.110;2022-10-18T09:25:23;20.20;99.90
7472;DHT22;3777;48.722;8.110;2022-10-18T09:27:53;20.60;99.90
7472;DHT22;3777;48.722;8.110;2022-10-18T09:30:28;21.00;99.90
7472;DHT22;3777;48.722;8.110;2022-10-18T09:33:06;21.50;99.90
7472;DHT22;3777;48.722;8.110;2022-10-18T09:35:41;21.70;99.90
7472;DHT22;3777;48.722;8.110;2022-10-18T09:38:11;22.00;99.90
7472;DHT22;3777;48.722;8.110;2022-10-18T09:40:47;22.10;99.90
7472;DHT22;3777;48.722;8.110;2022-10-18T09:43:19;22.50;99.90
7472;DHT22;3777;48.722;8.110;2022-10-18T09:45:47;22.80;99.90
7472;DHT22;3777;48.722;8.110;2022-10-18T09:48:19;22.80;99.90
7472;DHT22;3777;48.722;8.110;2022-10-18T09:50:53;22.80;99.90
7472;DHT22;3777;48.722;8.110;2022-10-18T09:53:29;23.40;99.90
7472;DHT22;3777;48.722;8.110;2022-10-18T09:56:02;24.00;99.90
7472;DHT22;3777;48.722;8.110;2022-10-18T09:58:40;24.60;99.90
7472;DHT22;3777;48.722;8.110;2022-10-18T10:01:10;24.20;99.90
7472;DHT22;3777;48.722;8.110;2022-10-18T10:03:38;24.00;99.90
7472;DHT22;3777;48.722;8.110;2022-10-18T10:06:25;23.90;99.90
7472;DHT22;3777;48.722;8.110;2022-10-18T10:08:57;23.90;99.90
7472;DHT22;3777;48.722;8.110;2022-10-18T10:11:30;24.20;99.90
7472;DHT22;3777;48.722;8.110;2022-10-18T10:14:07;24.40;99.90
7472;DHT22;3777;48.722;8.110;2022-10-18T10:16:49;24.60;99.90
7472;DHT22;3777;48.722;8.110;2022-10-18T10:19:19;24.50;99.90
7472;DHT22;3777;48.722;8.110;2022-10-18T10:21:50;24.70;99.90
7472;DHT22;3777;48.722;8.110;2022-10-18T10:24:21;24.80;99.90
7472;DHT22;3777;48.722;8.110;2022-10-18T10:26:52;25.00;99.90
7472;DHT22;3777;48.722;8.110;2022-10-18T10:29:52;25.10;99.90
7472;DHT22;3777;48.722;8.110;2022-10-18T10:32:22;25.60;99.90
7472;DHT22;3777;48.722;8.110;2022-10-18T10:34:50;26.50;99.90
7472;DHT22;3777;48.722;8.110;2022-10-18T10:37:27;27.80;99.90
7472;DHT22;3777;48.722;8.110;2022-10-18T10:40:05;28.80;99.90
7472;DHT22;3777;48.722;8.110;2022-10-18T10:42:33;30.10;99.90
7472;DHT22;3777;48.722;8.110;2022-10-18T10:45:03;30.70;99.90
7472;DHT22;3777;48.722;8.110;2022-10-18T10:47:32;30.90;99.90
7472;DHT22;3777;48.722;8.110;2022-10-18T10:50:08;31.20;99.90
7472;DHT22;3777;48.722;8.110;2022-10-18T10:52:38;31.70;99.90
7472;DHT22;3777;48.722;8.110;2022-10-18T10:55:17;32.20;99.90
7472;DHT22;3777;48.722;8.110;2022-10-18T10:57:46;32.10;99.90
7472;DHT22;3777;48.722;8.110;2022-10-18T11:00:35;31.50;99.90
7472;DHT22;3777;48.722;8.110;2022-10-18T11:03:05;31.10;99.90
7472;DHT22;3777;48.722;8.110;2022-10-18T11:05:42;30.40;99.90
7472;DHT22;3777;48.722;8.110;2022-10-18T11:08:13;30.50;99.90
7472;DHT22;3777;48.722;8.110;2022-10-18T11:10:54;29.50;99.90
7472;DHT22;3777;48.722;8.110;2022-10-18T11:13:30;29.00;99.90
7472;DHT22;3777;48.722;8.110;2022-10-18T11:16:03;29.00;99.90
7472;DHT22;3777;48.722;8.110;2022-10-18T11:18:33;28.20;99.90
7472;DHT22;3777;48.722;8.110;2022-10-18T11:21:03;27.70;99.90
7472;DHT22;3777;48.722;8.110;2022-10-18T11:23:35;27.00;99.90
7472;DHT22;3777;48.722;8.110;2022-10-18T11:26:14;26.80;99.90
7472;DHT22;3777;48.722;8.110;2022-10-18T11:28:58;26.60;99.90
7472;DHT22;3777;48.722;8.110;2022-10-18T11:31:31;26.30;99.90
7472;DHT22;3777;48.722;8.110;2022-10-18T11:34:12;26.30;99.90
7472;DHT22;3777;48.722;8.110;2022-10-18T11:36:48;26.20;99.90
7472;DHT22;3777;48.722;8.110;2022-10-18T11:39:22;25.90;99.90
7472;DHT22;3777;48.722;8.110;2022-10-18T11:41:58;25.80;99.90
7472;DHT22;3777;48.722;8.110;2022-10-18T11:44:34;25.60;99.90
7472;DHT22;3777;48.722;8.110;2022-10-18T11:47:07;25.50;99.90
7472;DHT22;3777;48.722;8.110;2022-10-18T11:49:53;25.40;99.90
7472;DHT22;3777;48.722;8.110;2022-10-18T11:52:28;25.50;99.90
7472;DHT22;3777;48.722;8.110;2022-10-18T11:55:10;25.40;99.90
7472;DHT22;3777;48.722;8.110;2022-10-18T11:57:44;25.30;99.90
7472;DHT22;3777;48.722;8.110;2022-10-18T12:00:21;25.20;99.90
7472;DHT22;3777;48.722;8.110;2022-10-18T12:03:10;25.20;99.90
7472;DHT22;3777;48.722;8.110;2022-10-18T12:05:40;25.20;99.90
7472;DHT22;3777;48.722;8.110;2022-10-18T12:08:11;25.30;99.90
7472;DHT22;3777;48.722;8.110;2022-10-18T12:10:42;25.30;99.90
7472;DHT22;3777;48.722;8.110;2022-10-18T12:13:15;25.20;99.90
7472;DHT22;3777;48.722;8.110;2022-10-18T12:15:43;25.10;99.90
7472;DHT22;3777;48.722;8.110;2022-10-18T12:18:13;25.00;99.90
7472;DHT22;3777;48.722;8.110;2022-10-18T12:20:44;24.90;99.90
7472;DHT22;3777;48.722;8.110;2022-10-18T12:23:15;24.70;99.90
7472;DHT22;3777;48.722;8.110;2022-10-18T12:25:46;24.60;99.90
7472;DHT22;3777;48.722;8.110;2022-10-18T12:28:23;24.50;99.90
7472;DHT22;3777;48.722;8.110;2022-10-18T12:30:55;24.40;99.90
7472;DHT22;3777;48.722;8.110;2022-10-18T12:33:26;24.20;99.90
7472;DHT22;3777;48.722;8.110;2022-10-18T12:36:02;24.00;99.90
7472;DHT22;3777;48.722;8.110;2022-10-18T12:38:33;23.90;99.90
7472;DHT22;3777;48.722;8.110;2022-10-18T12:41:03;23.80;99.90
7472;DHT22;3777;48.722;8.110;2022-10-18T12:43:32;23.70;99.90
7472;DHT22;3777;48.722;8.110;2022-10-18T12:46:04;23.60;99.90
7472;DHT22;3777;48.722;8.110;2022-10-18T12:48:34;23.60;99.90
7472;DHT22;3777;48.722;8.110;2022-10-18T12:51:06;23.60;99.90
7472;DHT22;3777;48.722;8.110;2022-10-18T12:53:38;23.70;99.90
7472;DHT22;3777;48.722;8.110;2022-10-18T12:56:34;23.80;99.90
7472;DHT22;3777;48.722;8.110;2022-10-18T13:02:24;24.00;99.90
7472;DHT22;3777;48.722;8.110;2022-10-18T13:04:51;24.10;99.90
7472;DHT22;3777;48.722;8.110;2022-10-18T13:07:21;24.10;99.90
7472;DHT22;3777;48.722;8.110;2022-10-18T13:16:01;24.00;99.90
7472;DHT22;3777;48.722;8.110;2022-10-18T13:18:34;23.80;99.90
7472;DHT22;3777;48.722;8.110;2022-10-18T13:21:13;23.70;99.90
7472;DHT22;3777;48.722;8.110;2022-10-18T13:26:41;23.30;99.90
7472;DHT22;3777;48.722;8.110;2022-10-18T13:29:26;23.20;99.90
7472;DHT22;3777;48.722;8.110;2022-10-18T13:31:58;23.00;99.90
7472;DHT22;3777;48.722;8.110;2022-10-18T13:34:31;23.00;99.90
7472;DHT22;3777;48.722;8.110;2022-10-18T13:37:01;23.00;99.90
7472;DHT22;3777;48.722;8.110;2022-10-18T13:39:29;23.00;99.90
7472;DHT22;3777;48.722;8.110;2022-10-18T13:51:28;23.00;99.90
7472;DHT22;3777;48.722;8.110;2022-10-18T13:54:01;23.20;99.90
7472;DHT22;3777;48.722;8.110;2022-10-18T13:56:55;23.40;99.90
7472;DHT22;3777;48.722;8.110;2022-10-18T13:59:41;23.30;99.90
7472;DHT22;3777;48.722;8.110;2022-10-18T14:02:38;23.20;99.90
7472;DHT22;3777;48.722;8.110;2022-10-18T14:08:17;23.20;99.90
7472;DHT22;3777;48.722;8.110;2022-10-18T14:10:53;23.30;99.90
7472;DHT22;3777;48.722;8.110;2022-10-18T14:13:24;23.30;99.90
7472;DHT22;3777;48.722;8.110;2022-10-18T14:15:55;23.40;99.90
7472;DHT22;3777;48.722;8.110;2022-10-18T14:18:26;23.30;99.90
7472;DHT22;3777;48.722;8.110;2022-10-18T14:20:59;23.30;99.90
7472;DHT22;3777;48.722;8.110;2022-10-18T14:23:32;23.40;99.90
7472;DHT22;3777;48.722;8.110;2022-10-18T14:26:05;23.40;99.90
7472;DHT22;3777;48.722;8.110;2022-10-18T14:28:33;23.40;99.90
7472;DHT22;3777;48.722;8.110;2022-10-18T14:31:02;23.40;99.90
7472;DHT22;3777;48.722;8.110;2022-10-18T14:33:33;23.40;99.90
7472;DHT22;3777;48.722;8.110;2022-10-18T14:36:05;23.40;99.90
7472;DHT22;3777;48.722;8.110;2022-10-18T14:38:36;23.40;99.90
7472;DHT22;3777;48.722;8.110;2022-10-18T14:41:12;23.20;99.90
7472;DHT22;3777;48.722;8.110;2022-10-18T14:43:41;23.20;99.90
7472;DHT22;3777;48.722;8.110;2022-10-18T14:46:10;23.20;99.90
7472;DHT22;3777;48.722;8.110;2022-10-18T14:48:37;23.20;99.90
7472;DHT22;3777;48.722;8.110;2022-10-18T14:51:09;23.20;99.90
7472;DHT22;3777;48.722;8.110;2022-10-18T14:53:40;23.30;99.90
7472;DHT22;3777;48.722;8.110;2022-10-18T14:56:22;23.30;99.90
7472;DHT22;3777;48.722;8.110;2022-10-18T14:58:50;23.30;99.90
7472;DHT22;3777;48.722;8.110;2022-10-18T15:01:19;23.30;99.90
7472;DHT22;3777;48.722;8.110;2022-10-18T15:03:47;23.30;99.90
7472;DHT22;3777;48.722;8.110;2022-10-18T15:06:16;23.30;99.90
7472;DHT22;3777;48.722;8.110;2022-10-18T15:08:48;23.20;99.90
7472;DHT22;3777;48.722;8.110;2022-10-18T15:11:17;23.20;99.90
7472;DHT22;3777;48.722;8.110;2022-10-18T15:13:48;23.20;99.90
7472;DHT22;3777;48.722;8.110;2022-10-18T15:16:17;23.10;99.90
7472;DHT22;3777;48.722;8.110;2022-10-18T15:18:59;23.10;99.90
7472;DHT22;3777;48.722;8.110;2022-10-18T15:21:26;23.10;99.90
7472;DHT22;3777;48.722;8.110;2022-10-18T15:23:54;23.00;99.90
7472;DHT22;3777;48.722;8.110;2022-10-18T15:26:43;22.90;99.90
7472;DHT22;3777;48.722;8.110;2022-10-18T15:29:15;22.90;99.90
7472;DHT22;3777;48.722;8.110;2022-10-18T15:31:42;22.80;99.90
7472;DHT22;3777;48.722;8.110;2022-10-18T15:34:15;22.80;99.90
7472;DHT22;3777;48.722;8.110;2022-10-18T15:36:44;22.70;99.90
7472;DHT22;3777;48.722;8.110;2022-10-18T15:39:15;22.70;99.90
7472;DHT22;3777;48.722;8.110;2022-10-18T15:41:46;22.70;99.90
7472;DHT22;3777;48.722;8.110;2022-10-18T15:44:26;22.60;99.90
7472;DHT22;3777;48.722;8.110;2022-10-18T15:47:09;22.60;99.90
7472;DHT22;3777;48.722;8.110;2022-10-18T15:49:54;22.50;99.90
7472;DHT22;3777;48.722;8.110;2022-10-18T15:52:34;22.50;99.90
7472;DHT22;3777;48.722;8.110;2022-10-18T15:55:44;22.40;99.90
7472;DHT22;3777;48.722;8.110;2022-10-18T15:58:15;22.30;99.90
7472;DHT22;3777;48.722;8.110;2022-10-18T16:00:43;22.20;99.90
7472;DHT22;3777;48.722;8.110;2022-10-18T16:03:11;22.10;99.90
7472;DHT22;3777;48.722;8.110;2022-10-18T16:05:38;22.10;99.90
7472;DHT22;3777;48.722;8.110;2022-10-18T16:08:05;22.10;99.90
7472;DHT22;3777;48.722;8.110;2022-10-18T16:10:34;22.00;99.90
7472;DHT22;3777;48.722;8.110;2022-10-18T16:13:02;21.90;99.90
7472;DHT22;3777;48.722;8.110;2022-10-18T16:15:29;21.90;99.90
7472;DHT22;3777;48.722;8.110;2022-10-18T16:17:56;21.90;99.90
7472;DHT22;3777;48.722;8.110;2022-10-18T16:20:24;21.90;99.90
7472;DHT22;3777;48.722;8.110;2022-10-18T16:22:51;21.80;99.90
7472;DHT22;3777;48.722;8.110;2022-10-18T16:25:18;21.80;99.90
7472;DHT22;3777;48.722;8.110;2022-10-18T16:27:47;21.70;99.90
7472;DHT22;3777;48.722;8.110;2022-10-18T16:30:17;21.60;99.90
7472;DHT22;3777;48.722;8.110;2022-10-18T16:32:45;21.60;99.90
7472;DHT22;3777;48.722;8.110;2022-10-18T16:35:13;21.60;99.90
7472;DHT22;3777;48.722;8.110;2022-10-18T16:37:40;21.60;99.90
7472;DHT22;3777;48.722;8.110;2022-10-18T16:40:20;21.60;99.90
7472;DHT22;3777;48.722;8.110;2022-10-18T16:42:49;21.50;99.90
7472;DHT22;3777;48.722;8.110;2022-10-18T16:45:16;21.50;99.90
7472;DHT22;3777;48.722;8.110;2022-10-18T16:47:43;21.40;99.90
7472;DHT22;3777;48.722;8.110;2022-10-18T16:50:15;21.40;99.90
7472;DHT22;3777;48.722;8.110;2022-10-18T16:52:42;21.40;99.90
7472;DHT22;3777;48.722;8.110;2022-10-18T16:55:09;21.40;99.90
7472;DHT22;3777;48.722;8.110;2022-10-18T16:57:42;21.30;99.90
7472;DHT22;3777;48.722;8.110;2022-10-18T17:00:17;21.30;99.90